This is the latest recevied weather packets stored in our database for station/object DC0PP-10. If no packets are shown the sender has not sent any weather packets the latest 10 day(s).
| Time | Temp. | Humidity | Pressure | Rain* | Wind** | Luminosity | Snow |
|---|---|---|---|---|---|---|---|
| 1778046956 | 16.67° C | 80% | 1008.4 hPa | - | - | - | - |
| 1778046056 | 13.89° C | 91% | 1008.4 hPa | - | - | - | - |
| 1778045156 | 13.33° C | 96% | 1008.6 hPa | - | - | - | - |
| 1778044256 | 12.78° C | 98% | 1008.8 hPa | - | - | - | - |
| 1778043356 | 12.78° C | 100% | 1008.7 hPa | - | - | - | - |
| 1778042455 | 12.22° C | 100% | 1008.8 hPa | - | - | - | - |
| 1778041555 | 12.22° C | 100% | 1008.8 hPa | - | - | - | - |
| 1778040655 | 12.22° C | 100% | 1008.9 hPa | - | - | - | - |
| 1778039755 | 12.22° C | 100% | 1008.6 hPa | - | - | - | - |
| 1778038855 | 12.78° C | 100% | 1008.8 hPa | - | - | - | - |
| 1778037955 | 12.78° C | 100% | 1008.9 hPa | - | - | - | - |
| 1778037054 | 13.33° C | 100% | 1008.9 hPa | - | - | - | - |
| 1778036154 | 13.33° C | 100% | 1009.1 hPa | - | - | - | - |
| 1778035254 | 13.89° C | 97% | 1009.3 hPa | - | - | - | - |
| 1778034354 | 14.44° C | 96% | 1009.3 hPa | - | - | - | - |
| 1778033454 | 13.89° C | 98% | 1009.4 hPa | - | - | - | - |
| 1778032554 | 13.89° C | 100% | 1009.5 hPa | - | - | - | - |
| 1778031654 | 13.89° C | 100% | 1009.5 hPa | - | - | - | - |
| 1778030753 | 13.89° C | 100% | 1009.5 hPa | - | - | - | - |
| 1778029853 | 13.89° C | 99% | 1009.4 hPa | - | - | - | - |
| 1778028952 | 13.89° C | 100% | 1009.7 hPa | - | - | - | - |
| 1778028052 | 13.89° C | 100% | 1009.5 hPa | - | - | - | - |
| 1778027153 | 13.89° C | 100% | 1009.9 hPa | - | - | - | - |
| 1778026253 | 13.89° C | 100% | 1010.2 hPa | - | - | - | - |
| 1778025353 | 13.89° C | 100% | 1010 hPa | - | - | - | - |
* Rain since midnight (hover to see other rain measurements)
** Current wind speed in m/s (hover to see current wind gust speed)